METAR Data
IDs: Format: Raw Decoded Include TAF

Data at: 1943 UTC 13 Nov 2019

NZWN 131930Z AUTO 34018G30KT 300V360 9999 SCT021/// 15/11 Q0995 NOSIG
NZWN 131900Z AUTO 35023G36KT 9999 FEW019/// 15/11 Q0994 NOSIG
NZWN 131830Z AUTO 34021G32KT 9999 FEW015/// SCT022/// 15/12 Q0994 BECMG 26020G35KT TEMPO 6000 RA BKN014
NZWN 131800Z AUTO 35017G31KT 9999 -RA BKN017/// BKN024/// BKN030/// 15/13 Q0995 BECMG 26020G35KT TEMPO 6000 RA BKN014
NZWN 131730Z AUTO 35026G46KT 9000 -RA SCT014/// BKN021/// BKN030/// 15/13 Q0994 BECMG FM1800 26020G35KT TEMPO 6000 RA BKN014
NZWN 131700Z AUTO 36026KT 3600 RA BKN014/// BKN026/// BKN034/// 13/12 Q0994 BECMG 6000 RA BKN016

TAF NZWN 131705Z 1318/1418 36020G45KT 9999 SCT030
  BECMG 1318/1320 26020G35KT
  TEMPO 1318/1319 3000 RA BKN014
  TEMPO 1406/1416 6000 SHRA FEW020CB
  PROB30
  TEMPO 1406/1416 2000 TSRAGS BKN014 FEW020CB
  BECMG 1416/1418 34012KT